Flight Track Log - Related Links

Times and Time Zones

All times are in EDT time to prevent confusion due to time zone crossing. See the DAL268 flight status page for this flight to view local times or setup timezone preferences in your user account.

Time Position Orientation Groundspeed Altitude Reporting Facility
EDT Latitude Longitude Course Direction KTS MPH feet Rate Location/Type
Sun 12:03:27 AM 40.6460 -73.8090 143° Southeast 115 132  Level FlightAware ADS-B
Sun 12:03:47 AM 40.6390 -73.7930 120° Southeast 145 167 409 Level FlightAware ADS-B
Sun 12:04:11 AM 40.6280 -73.7710 123° Southeast 180 207 300 1,029 Climbing FlightAware ADS-B
Sun 12:04:22 AM 40.6230 -73.7630 129° Southeast 183 211 600 1,579 Climbing FlightAware ADS-B
Sun 12:04:30 AM 40.6180 -73.7570 138° Southeast 188 216 800 1,500 Climbing FlightAware ADS-B
Sun 12:04:38 AM 40.6110 -73.7530 157° South 193 222 1,000 1,929 Climbing FlightAware ADS-B
Sun 12:04:58 AM 40.5930 -73.7460 164° South 194 223 1,700 1,950 Climbing FlightAware ADS-B
Sun 12:05:18 AM 40.5760 -73.7390 163° South 181 208 2,300 2,069 Climbing FlightAware ADS-B
Sun 12:05:27 AM 40.5700 -73.7350 153° Southeast 166 191 2,700 2,286 Climbing FlightAware ADS-B
Sun 12:05:39 AM 40.5630 -73.7270 139° Southeast 162 186 3,100 1,200 Climbing FlightAware ADS-B
Sun 12:05:47 AM 40.5600 -73.7200 119° Southeast 167 192 3,100 375 Level FlightAware ADS-B
Sun 12:05:55 AM 40.5560 -73.7130 127° Southeast 175 201 3,200 300 Climbing FlightAware ADS-B
Sun 12:06:07 AM 40.5510 -73.7010 119° Southeast 191 220 3,200 333 Level FlightAware ADS-B
Sun 12:06:31 AM 40.5390 -73.6750 121° Southeast 217 250 3,400 667 Climbing FlightAware ADS-B
Sun 12:06:43 AM 40.5320 -73.6620 125° Southeast 224 258 3,600 1,125 Climbing FlightAware ADS-B
Sun 12:07:03 AM 40.5210 -73.6370 120° Southeast 240 276 4,000 1,167 Climbing FlightAware ADS-B
Sun 12:07:19 AM 40.5110 -73.6170 123° Southeast 251 289 4,300 1,167 Climbing FlightAware ADS-B
Sun 12:07:39 AM 40.4980 -73.5900 122° Southeast 265 305 4,700 1,538 Climbing FlightAware ADS-B
Sun 12:07:58 AM 40.4860 -73.5670 124° Southeast 271 312 5,300 1,909 Climbing FlightAware ADS-B
Sun 12:08:23 AM 40.4680 -73.5280 121° Southeast 281 323 6,100 1,909 Climbing FlightAware ADS-B
Sun 12:08:42 AM 40.4550 -73.5020 123° Southeast 287 330 6,700 2,000 Climbing FlightAware ADS-B
Sun 12:09:02 AM 40.4410 -73.4710 121° Southeast 290 334 7,400 2,045 Climbing FlightAware ADS-B
Sun 12:09:26 AM 40.4250 -73.4370 122° Southeast 295 339 8,200 1,773 Climbing FlightAware ADS-B
Sun 12:09:46 AM 40.4100 -73.4070 123° Southeast 305 351 8,700 1,935 Climbing FlightAware ADS-B
Sun 12:09:57 AM 40.4000 -73.3870 123° Southeast 308 354 9,200 2,082 Climbing FlightAware ADS-B
Sun 12:10:35 AM 40.3710 -73.3300 124° Southeast 311 358 10,400 1,313 Climbing FlightAware ADS-B
Sun 12:11:01 AM 40.3500 -73.2840 121° Southeast 341 392 10,600 1,029 Climbing FlightAware ADS-B
Sun 12:11:45 AM 40.3080 -73.2080 126° Southeast 368 423 11,600 1,215 Climbing FlightAware ADS-B
Sun 12:12:20 AM 40.2700 -73.1460 129° Southeast 393 452 12,200 1,800 Climbing FlightAware ADS-B
Sun 12:12:55 AM 40.2310 -73.0770 126° Southeast 396 456 13,700 2,040 Climbing FlightAware ADS-B
Sun 12:13:10 AM 40.2180 -73.0460 119° Southeast 404 465 13,900 1,636 Climbing FlightAware ADS-B
Sun 12:13:28 AM 40.2048 -73.0004 111° Southeast 411 473 14,600 2,375 Climbing FlightAware ADS-B (KSNC)
Sun 12:13:58 AM 40.1934 -72.9280 102° East 412 474 15,800 2,206 Climbing FlightAware ADS-B (KSNC)
Sun 12:14:36 AM 40.1812 -72.8338 100° East 421 484 17,100 1,973 Climbing FlightAware ADS-B (KSNC)
Sun 12:15:11 AM 40.1681 -72.7475 101° East 427 491 18,200 1,784 Climbing FlightAware ADS-B (KSNC)
Sun 12:15:50 AM 40.1530 -72.6510 102° East 434 499 19,300 1,765 Climbing FlightAware ADS-B
Sun 12:16:02 AM 40.1474 -72.6168 102° East 436 502 19,700 1,765 Climbing FlightAware ADS-B (KSNC)
Sun 12:16:58 AM 40.1263 -72.4724 101° East 443 510 21,300 1,714 Climbing FlightAware ADS-B (KSNC)
Sun 12:17:40 AM 40.1110 -72.3670 101° East 448 516 22,500 1,583 Climbing FlightAware ADS-B
Sun 12:18:10 AM 40.0980 -72.2900 102° East 451 519 23,200 1,500 Climbing FlightAware ADS-B
Sun 12:18:48 AM 40.0810 -72.1770 101° East 460 529 24,200 1,562 Climbing FlightAware ADS-B
Sun 12:19:23 AM 40.0650 -72.0810 102° East 462 532 25,100 1,250 Climbing FlightAware ADS-B
Sun 12:20:00 AM 40.0500 -71.9790 101° East 471 542 25,700 805 Climbing FlightAware ADS-B
Sun 12:20:45 AM 40.0320 -71.8640 102° East 470 541 26,200 1,636 Climbing FlightAware ADS-B
Sun 12:21:17 AM 40.0150 -71.7640 102° East 471 542 27,800 1,403 Climbing FlightAware ADS-B
Sun 12:22:02 AM 39.9970 -71.6520 102° East 473 544 28,000 148 Climbing FlightAware ADS-B
Sun 12:22:38 AM 39.9850 -71.5660 100° East 473 544 28,000  Level FlightAware ADS-B
Sun 12:23:14 AM 39.9720 -71.4800 101° East 473 544 28,000  Level FlightAware ADS-B
Sun 12:23:50 AM 39.9590 -71.3940 101° East 473 544 28,000  Level FlightAware ADS-B
Sun 12:24:26 AM 39.9460 -71.3090 101° East 473 544 28,000  Level FlightAware ADS-B
Sun 12:25:02 AM 39.9330 -71.2230 101° East 473 544 28,000 2,331 Level FlightAware ADS-B
Sun 12:26:27 AM 39.8581 -70.8819 101° East 488 562 32,700 2,069 Climbing New York Center
Sun 12:27:27 AM 39.8250 -70.7117 104° East 488 562 33,000 150 Climbing New York Center
Sun 12:28:27 AM 39.7978 -70.5333 101° East 488 562 33,000  Level New York Center
Sun 12:29:27 AM 39.7619 -70.3661 106° East 488 562 33,000  Level New York Center
Sun 12:30:27 AM 39.7319 -70.1933 103° East 488 562 33,000  Level New York Center
Sun 12:31:27 AM 39.7061 -70.0128 100° East 488 562 33,000  Level New York Center
Sun 12:32:27 AM 39.6736 -69.8458 104° East 483 556 33,000  Level New York Center
Sun 12:33:27 AM 39.6389 -69.6631 104° East 497 572 33,000  Level New York Center
Sun 12:34:27 AM 39.6058 -69.4858 104° East 509 586 33,000  Level New York Center
Sun 12:35:27 AM 39.5728 -69.3111 104° East 509 586 33,000  Level New York Center
Sun 12:36:27 AM 39.5392 -69.1289 103° East 510 587 33,000  Level New York Center
Sun 12:37:27 AM 39.5031 -68.9467 104° East 510 587 33,000  Level New York Center
Sun 12:38:27 AM 39.4711 -68.7619 103° East 510 587 33,000  Level New York Center
Sun 12:39:27 AM 39.4325 -68.5828 106° East 510 587 33,000  Level New York Center
Sun 12:40:27 AM 39.3958 -68.4014 105° East 516 594 33,000  Level New York Center
Sun 12:41:27 AM 39.3631 -68.2172 103° East 516 594 33,000  Level New York Center
Sun 12:42:27 AM 39.3256 -68.0358 105° East 521 600 33,000 50 Level New York Center
Sun 12:43:27 AM 39.2881 -67.8550 105° East 521 600 33,100 450 Climbing New York Center
Sun 12:44:27 AM 39.2503 -67.6739 105° East 526 605 33,900 450 Climbing New York Center
Sun 12:45:27 AM 39.2139 -67.4881 104° East 531 611 34,000 50 Climbing New York Center
Sun 12:46:27 AM 39.1797 -67.3047 103° East 531 611 34,000  Level New York Center
Sun 12:47:27 AM 39.1417 -67.1431 107° East 526 605 34,000  Level New York Center
Sun 12:48:27 AM 39.1292 -66.9483 95° East 526 605 34,000  Level New York Center
Sun 12:50:00 AM 39.2200 -66.6493 69° East  Level FlightAware Approximate
Sun 12:52:51 AM 39.1167 -67.0000 78° East 564 649 34,000  Level New York Oceanic (ODAPS)
Sun 12:57:00 AM 39.6296 -65.2941 68° East  Level FlightAware Approximate
Sun 12:58:00 AM 39.6883 -65.0999 68° East  Level FlightAware Approximate
Sun 12:59:00 AM 39.4394 -64.8197 80° East 564 649 34,000  Level FlightAware Transoceanic
Sun 01:00:00 AM 39.4667 -64.6206 80° East 564 649 34,000  Level FlightAware Transoceanic
Sun 01:01:00 AM 39.4937 -64.4212 80° East 564 649 34,000  Level FlightAware Transoceanic
Sun 01:02:00 AM 39.5203 -64.2217 80° East 564 649 34,000  Level FlightAware Transoceanic
Sun 01:03:00 AM 39.5466 -64.0221 80° East 564 649 34,000  Level FlightAware Transoceanic
Sun 01:04:00 AM 39.5726 -63.8223 81° East 564 649 34,000  Level FlightAware Transoceanic
Sun 01:05:00 AM 39.5982 -63.6223 81° East 564 649 34,000  Level FlightAware Transoceanic
Sun 01:06:00 AM 39.6235 -63.4222 81° East 564 649 34,000  Level FlightAware Transoceanic
Sun 01:07:00 AM 39.6484 -63.2220 81° East 564 649 34,000  Level FlightAware Transoceanic
Sun 01:08:00 AM 39.6730 -63.0216 81° East 564 649 34,000  Level FlightAware Transoceanic
Sun 01:09:00 AM 39.6972 -62.8211 81° East 564 649 34,000  Level FlightAware Transoceanic
Sun 01:10:00 AM 39.7211 -62.6205 81° East 564 649 34,000  Level FlightAware Transoceanic
Sun 01:11:00 AM 39.7446 -62.4197 81° East 564 649 34,000  Level FlightAware Transoceanic
Sun 01:12:00 AM 39.7678 -62.2187 82° East 564 649 34,000  Level FlightAware Transoceanic
Sun 01:13:00 AM 39.7907 -62.0177 82° East 564 649 34,000  Level FlightAware Transoceanic
Sun 01:14:00 AM 39.8132 -61.8165 82° East 564 649 34,000  Level FlightAware Transoceanic
Sun 01:15:00 AM 39.8353 -61.6151 82° East 564 649 34,000  Level FlightAware Transoceanic
Sun 01:16:00 AM 39.8571 -61.4137 82° East 564 649 34,000  Level FlightAware Transoceanic
Sun 01:17:00 AM 39.8786 -61.2121 82° East 564 649 34,000  Level FlightAware Transoceanic
Sun 01:18:00 AM 39.8997 -61.0104 82° East 564 649 34,000  Level FlightAware Transoceanic
Sun 01:19:00 AM 39.9205 -60.8085 82° East 564 649 34,000  Level FlightAware Transoceanic
Sun 01:20:00 AM 39.9409 -60.6066 83° East 564 649 34,000  Level FlightAware Transoceanic
Sun 01:21:00 AM 39.9609 -60.4045 83° East 564 649 34,000  Level FlightAware Transoceanic
Sun 01:22:00 AM 39.9806 -60.2023 83° East 564 649 34,000  Level FlightAware Transoceanic
Sun 01:23:00 AM 40.0000 -60.0000 87° East 564 649 34,000  Level FlightAware Transoceanic
Sun 01:24:00 AM 40.0091 -59.7830 87° East 564 649 34,000  Level FlightAware Transoceanic
Sun 01:25:00 AM 40.0179 -59.5660 87° East 564 649 34,000  Level FlightAware Transoceanic
Sun 01:26:00 AM 40.0262 -59.3489 87° East 564 649 34,000  Level FlightAware Transoceanic
Sun 01:27:00 AM 40.0341 -59.1318 87° East 564 649 34,000 659 Level FlightAware Transoceanic
Sun 01:27:31 AM 40.0000 -60.0000 87° East 588 677 35,000  Climbing New York Oceanic (ODAPS)
Sun 01:28:00 AM 40.0417 -58.9146 87° East 564 649 34,000 -674 Descending FlightAware Transoceanic
Sun 01:29:00 AM 40.0488 -58.6974 88° East 564 649 34,000  Level FlightAware Transoceanic
Sun 01:30:00 AM 40.0555 -58.4801 88° East 564 649 34,000  Level FlightAware Transoceanic
Sun 01:31:00 AM 40.0618 -58.2628 88° East 564 649 34,000  Level FlightAware Transoceanic
Sun 01:32:00 AM 40.0677 -58.0455 88° East 564 649 34,000 500 Level FlightAware Transoceanic
Sun 01:33:00 AM 40.0771 -57.6616 88° East 588 677 35,000 500 Climbing FlightAware Transoceanic
Sun 01:34:00 AM 40.0818 -57.4488 88° East 588 677 35,000  Level FlightAware Transoceanic
Sun 01:35:00 AM 40.0861 -57.2359 89° East 588 677 35,000  Level FlightAware Transoceanic
Sun 01:36:00 AM 40.0900 -57.0231 89° East 588 677 35,000  Level FlightAware Transoceanic
Sun 01:37:00 AM 40.0935 -56.8102 89° East 588 677 35,000  Level FlightAware Transoceanic
Sun 01:38:00 AM 40.0966 -56.5973 89° East 588 677 35,000  Level FlightAware Transoceanic
Sun 01:39:00 AM 40.0994 -56.3843 89° East 588 677 35,000  Level FlightAware Transoceanic
Sun 01:40:00 AM 40.1017 -56.1714 89° East 588 677 35,000  Level FlightAware Transoceanic
Sun 01:41:00 AM 40.1036 -55.9584 89° East 588 677 35,000  Level FlightAware Transoceanic
Sun 01:42:00 AM 40.1052 -55.7454 90° East 588 677 35,000  Level FlightAware Transoceanic
Sun 01:43:00 AM 40.1064 -55.5325 90° East 588 677 35,000  Level FlightAware Transoceanic
Sun 01:44:00 AM 40.1072 -55.3195 90° East 588 677 35,000  Level FlightAware Transoceanic
Sun 01:45:00 AM 40.1076 -55.1065 90° East 588 677 35,000  Level FlightAware Transoceanic
Sun 01:46:00 AM 40.1076 -54.8935 90° East 588 677 35,000  Level FlightAware Transoceanic
Sun 01:47:00 AM 40.1072 -54.6805 90° East 588 677 35,000  Level FlightAware Transoceanic
Sun 01:48:00 AM 40.1064 -54.4675 90° East 588 677 35,000  Level FlightAware Transoceanic
Sun 01:49:00 AM 40.1052 -54.2546 90° East 588 677 35,000  Level FlightAware Transoceanic
Sun 01:50:00 AM 40.1036 -54.0416 91° East 588 677 35,000  Level FlightAware Transoceanic
Sun 01:51:00 AM 40.1017 -53.8286 91° East 588 677 35,000  Level FlightAware Transoceanic
Sun 01:52:00 AM 40.0994 -53.6157 91° East 588 677 35,000  Level FlightAware Transoceanic
Sun 01:53:00 AM 40.0966 -53.4027 91° East 588 677 35,000  Level FlightAware Transoceanic
Sun 01:54:00 AM 40.0935 -53.1898 91° East 588 677 35,000  Level FlightAware Transoceanic
Sun 01:55:00 AM 40.0900 -52.9769 91° East 588 677 35,000  Level FlightAware Transoceanic
Sun 01:56:00 AM 40.0861 -52.7641 91° East 588 677 35,000  Level FlightAware Transoceanic
Sun 01:57:00 AM 40.0818 -52.5512 92° East 588 677 35,000  Level FlightAware Transoceanic
Sun 01:58:00 AM 40.0771 -52.3384 92° East 588 677 35,000  Level FlightAware Transoceanic
Sun 01:59:00 AM 40.0721 -52.1256 92° East 588 677 35,000  Level FlightAware Transoceanic
Sun 02:00:00 AM 40.0666 -51.9129 92° East 588 677 35,000  Level FlightAware Transoceanic
Sun 02:01:00 AM 40.0608 -51.7002 92° East 588 677 35,000  Level FlightAware Transoceanic
Sun 02:02:00 AM 40.0545 -51.4875 92° East 588 677 35,000  Level FlightAware Transoceanic
Sun 02:03:00 AM 40.0479 -51.2748 92° East 588 677 35,000  Level FlightAware Transoceanic
Sun 02:04:00 AM 40.0409 -51.0623 93° East 588 677 35,000  Level FlightAware Transoceanic
Sun 02:05:00 AM 40.0335 -50.8497 93° East 588 677 35,000  Level FlightAware Transoceanic
Sun 02:06:00 AM 40.0257 -50.6372 93° East 588 677 35,000  Level FlightAware Transoceanic
Sun 02:07:00 AM 40.0175 -50.4248 93° East 588 677 35,000  Level FlightAware Transoceanic
Sun 02:08:00 AM 40.0089 -50.2123 93° East 588 677 35,000  Level FlightAware Transoceanic
Sun 02:09:00 AM 40.0000 -50.0000 79° East 588 677 35,000  Level FlightAware Transoceanic
Sun 02:10:00 AM 40.0302 -49.7907 79° East 588 677 35,000  Level FlightAware Transoceanic
Sun 02:10:36 AM 40.0000 -50.0000 79° East 589 678 35,000  Level New York Oceanic (ODAPS)
Sun 02:11:00 AM 40.0600 -49.5813 80° East 588 677 35,000  Level FlightAware Transoceanic
Sun 02:12:00 AM 40.0894 -49.3716 80° East 588 677 35,000  Level FlightAware Transoceanic
Sun 02:13:00 AM 40.1184 -49.1618 80° East 588 677 35,000  Level FlightAware Transoceanic
Sun 02:14:00 AM 40.1470 -48.9518 80° East 588 677 35,000  Level FlightAware Transoceanic
Sun 02:15:00 AM 40.1753 -48.7416 80° East 588 677 35,000  Level FlightAware Transoceanic
Sun 02:16:00 AM 40.2307 -48.3208 80° East 589 678 35,000  Level FlightAware Transoceanic
Sun 02:17:00 AM 40.2578 -48.1101 80° East 589 678 35,000  Level FlightAware Transoceanic
Sun 02:18:00 AM 40.2846 -47.8993 81° East 589 678 35,000  Level FlightAware Transoceanic
Sun 02:19:00 AM 40.3110 -47.6882 81° East 589 678 35,000  Level FlightAware Transoceanic
Sun 02:20:00 AM 40.3369 -47.4770 81° East 589 678 35,000  Level FlightAware Transoceanic
Sun 02:21:00 AM 40.3625 -47.2657 81° East 589 678 35,000  Level FlightAware Transoceanic
Sun 02:22:00 AM 40.3877 -47.0542 81° East 589 678 35,000  Level FlightAware Transoceanic
Sun 02:23:00 AM 40.4126 -46.8425 81° East 589 678 35,000  Level FlightAware Transoceanic
Sun 02:24:00 AM 40.4370 -46.6307 81° East 589 678 35,000  Level FlightAware Transoceanic
Sun 02:25:00 AM 40.4610 -46.4187 82° East 589 678 35,000  Level FlightAware Transoceanic
Sun 02:26:00 AM 40.4847 -46.2066 82° East 589 678 35,000  Level FlightAware Transoceanic
Sun 02:27:00 AM 40.5080 -45.9944 82° East 589 678 35,000  Level FlightAware Transoceanic
Sun 02:28:00 AM 40.5309 -45.7819 82° East 589 678 35,000  Level FlightAware Transoceanic
Sun 02:29:00 AM 40.5534 -45.5694 82° East 589 678 35,000  Level FlightAware Transoceanic
Sun 02:30:00 AM 40.5755 -45.3567 82° East 589 678 35,000  Level FlightAware Transoceanic
Sun 02:31:00 AM 40.5972 -45.1438 82° East 589 678 35,000  Level FlightAware Transoceanic
Sun 02:32:00 AM 40.6185 -44.9309 83° East 589 678 35,000  Level FlightAware Transoceanic
Sun 02:33:00 AM 40.6395 -44.7177 83° East 589 678 35,000  Level FlightAware Transoceanic
Sun 02:34:00 AM 40.6600 -44.5045 83° East 589 678 35,000  Level FlightAware Transoceanic
Sun 02:35:00 AM 40.6801 -44.2911 83° East 589 678 35,000  Level FlightAware Transoceanic
Sun 02:36:00 AM 40.6999 -44.0776 83° East 589 678 35,000  Level FlightAware Transoceanic
Sun 02:37:00 AM 40.7193 -43.8640 83° East 589 678 35,000  Level FlightAware Transoceanic
Sun 02:38:00 AM 40.7382 -43.6502 83° East 589 678 35,000  Level FlightAware Transoceanic
Sun 02:39:00 AM 40.7568 -43.4364 84° East 589 678 35,000  Level FlightAware Transoceanic
Sun 02:40:00 AM 40.7750 -43.2224 84° East 589 678 35,000  Level FlightAware Transoceanic
Sun 02:41:00 AM 40.7928 -43.0083 84° East 589 678 35,000  Level FlightAware Transoceanic
Sun 02:42:00 AM 40.8102 -42.7941 84° East 589 678 35,000  Level FlightAware Transoceanic
Sun 02:43:00 AM 40.8272 -42.5797 84° East 589 678 35,000  Level FlightAware Transoceanic
Sun 02:44:00 AM 40.8438 -42.3653 84° East 589 678 35,000  Level FlightAware Transoceanic
Sun 02:45:00 AM 40.8600 -42.1507 84° East 589 678 35,000  Level FlightAware Transoceanic
Sun 02:46:00 AM 40.8758 -41.9361 85° East 589 678 35,000  Level FlightAware Transoceanic
Sun 02:47:00 AM 40.8912 -41.7213 85° East 589 678 35,000  Level FlightAware Transoceanic
Sun 02:48:00 AM 40.9062 -41.5065 85° East 589 678 35,000  Level FlightAware Transoceanic
Sun 02:49:00 AM 40.9208 -41.2915 85° East 589 678 35,000  Level FlightAware Transoceanic
Sun 02:50:00 AM 40.9350 -41.0765 85° East 589 678 35,000  Level FlightAware Transoceanic
Sun 02:51:00 AM 40.9488 -40.8614 85° East 589 678 35,000  Level FlightAware Transoceanic
Sun 02:52:00 AM 40.9622 -40.6462 85° East 589 678 35,000  Level FlightAware Transoceanic
Sun 02:53:00 AM 40.9752 -40.4309 85° East 589 678 35,000  Level FlightAware Transoceanic
Sun 02:54:00 AM 40.9878 -40.2155 86° East 589 678 35,000  Level FlightAware Transoceanic
Sun 02:55:00 AM 41.0000 -40.0000 79° East 589 678 35,000  Level FlightAware Transoceanic
Sun 02:56:00 AM 41.0302 -39.7909 79° East 589 678 35,000  Level FlightAware Transoceanic
Sun 02:57:00 AM 41.0600 -39.5815 79° East 589 678 35,000  Level FlightAware Transoceanic
Sun 02:58:00 AM 41.0895 -39.3720 80° East 589 678 35,000  Level FlightAware Transoceanic
Sun 02:59:00 AM 41.1185 -39.1623 80° East 589 678 35,000  Level FlightAware Transoceanic
Sun 03:00:00 AM 41.1472 -38.9524 80° East 589 678 35,000  Level FlightAware Transoceanic
Sun 03:01:00 AM 41.1755 -38.7423 80° East 589 678 35,000  Level FlightAware Transoceanic
Sun 03:02:00 AM 41.0000 -40.0000 79° East 566 651 35,000  Level ETMS Enhanced Traffic Management System
Sun 03:02:00 AM 41.2035 -38.5321 80° East 589 678 35,000  Level FlightAware Transoceanic
Sun 03:03:00 AM 41.2310 -38.3216 80° East 589 678 35,000  Level FlightAware Transoceanic
Sun 03:04:00 AM 41.2581 -38.1110 80° East 589 678 35,000  Level FlightAware Transoceanic
Sun 03:05:00 AM 41.2849 -37.9002 80° East 589 678 35,000  Level FlightAware Transoceanic
Sun 03:06:00 AM 41.3113 -37.6893 81° East 589 678 35,000  Level FlightAware Transoceanic
Sun 03:07:00 AM 41.3373 -37.4781 81° East 589 678 35,000  Level FlightAware Transoceanic
Sun 03:08:00 AM 41.3560 -37.3241 81° East 566 651 35,000  Level FlightAware Transoceanic
Sun 03:09:00 AM 41.3808 -37.1171 81° East 566 651 35,000  Level FlightAware Transoceanic
Sun 03:10:00 AM 41.4053 -36.9099 81° East 566 651 35,000  Level FlightAware Transoceanic
Sun 03:11:00 AM 41.4294 -36.7026 81° East 566 651 35,000  Level FlightAware Transoceanic
Sun 03:12:00 AM 41.4530 -36.4951 81° East 566 651 35,000  Level FlightAware Transoceanic
Sun 03:13:00 AM 41.4764 -36.2875 82° East 566 651 35,000  Level FlightAware Transoceanic
Sun 03:14:00 AM 41.4993 -36.0797 82° East 566 651 35,000  Level FlightAware Transoceanic
Sun 03:15:00 AM 41.5219 -35.8718 82° East 566 651 35,000  Level FlightAware Transoceanic
Sun 03:16:00 AM 41.5441 -35.6637 82° East 566 651 35,000  Level FlightAware Transoceanic
Sun 03:17:00 AM 41.5659 -35.4555 82° East 566 651 35,000  Level FlightAware Transoceanic
Sun 03:18:00 AM 41.5873 -35.2472 82° East 566 651 35,000  Level FlightAware Transoceanic
Sun 03:19:00 AM 41.6084 -35.0387 82° East 566 651 35,000  Level FlightAware Transoceanic
Sun 03:20:00 AM 41.6291 -34.8301 83° East 566 651 35,000  Level FlightAware Transoceanic
Sun 03:21:00 AM 41.6494 -34.6213 83° East 566 651 35,000  Level FlightAware Transoceanic
Sun 03:22:00 AM 41.6694 -34.4125 83° East 566 651 35,000  Level FlightAware Transoceanic
Sun 03:23:00 AM 41.6889 -34.2034 83° East 566 651 35,000  Level FlightAware Transoceanic
Sun 03:24:00 AM 41.7081 -33.9943 83° East 566 651 35,000  Level FlightAware Transoceanic
Sun 03:25:00 AM 41.7269 -33.7851 83° East 566 651 35,000  Level FlightAware Transoceanic
Sun 03:26:00 AM 41.7453 -33.5757 83° East 566 651 35,000  Level FlightAware Transoceanic
Sun 03:27:00 AM 41.7634 -33.3662 83° East 566 651 35,000  Level FlightAware Transoceanic
Sun 03:28:00 AM 41.7811 -33.1566 84° East 566 651 35,000  Level FlightAware Transoceanic
Sun 03:29:00 AM 41.7983 -32.9468 84° East 566 651 35,000  Level FlightAware Transoceanic
Sun 03:30:00 AM 41.8152 -32.7370 84° East 566 651 35,000  Level FlightAware Transoceanic
Sun 03:31:00 AM 41.8317 -32.5271 84° East 566 651 35,000  Level FlightAware Transoceanic
Sun 03:32:00 AM 41.8479 -32.3170 84° East 566 651 35,000  Level FlightAware Transoceanic
Sun 03:32:58 AM 41.8770 -32.2530 84° East 575 662 35,000  Level FlightAware ADS-B
Sun 03:33:00 AM 41.8636 -32.1068 84° East 566 651 35,000  Level FlightAware Transoceanic
Sun 03:33:32 AM 41.8870 -32.1270 84° East 577 664 35,000  Level FlightAware ADS-B
Sun 03:34:10 AM 41.8960 -31.9960 85° East 580 667 35,000  Level FlightAware ADS-B
Sun 03:34:39 AM 41.9040 -31.8880 84° East 583 671 35,000  Level FlightAware ADS-B
Sun 03:35:19 AM 41.9140 -31.7660 84° East 583 671 35,000  Level FlightAware ADS-B
Sun 03:35:53 AM 41.9230 -31.6210 85° East 581 669 35,000  Level FlightAware ADS-B
Sun 03:36:30 AM 41.9320 -31.4900 85° East 581 669 35,000  Level FlightAware ADS-B
Sun 03:37:02 AM 41.9400 -31.3730 85° East 581 669 35,000  Level FlightAware ADS-B
Sun 03:37:37 AM 41.9480 -31.2520 85° East 579 666 35,000  Level FlightAware ADS-B
Sun 03:38:13 AM 41.9570 -31.1180 85° East 580 667 35,000  Level FlightAware ADS-B
Sun 03:38:46 AM 41.9640 -31.0000 85° East 579 666 35,000  Level FlightAware ADS-B
Sun 03:39:23 AM 41.9720 -30.8680 85° East 580 667 35,000  Level FlightAware ADS-B
Sun 03:39:57 AM 41.9800 -30.7450 85° East 583 671 35,000  Level FlightAware ADS-B
Sun 03:40:32 AM 41.9880 -30.6200 85° East 585 673 35,000  Level FlightAware ADS-B
Sun 03:41:07 AM 41.9950 -30.4960 86° East 585 673 35,000  Level FlightAware ADS-B
Sun 03:41:42 AM 42.0030 -30.3650 85° East 585 673 35,000  Level FlightAware ADS-B
Sun 03:42:15 AM 42.0090 -30.2460 86° East 585 673 35,000  Level FlightAware ADS-B
Sun 03:42:51 AM 42.0170 -30.1140 85° East 586 674 35,000  Level FlightAware ADS-B
Sun 03:43:28 AM 42.0260 -29.9810 85° East 587 676 35,000  Level FlightAware ADS-B
Sun 03:44:05 AM 42.0430 -29.8490 80° East 587 676 35,000  Level FlightAware ADS-B
Sun 03:44:37 AM 42.0600 -29.7320 79° East 587 676 35,000  Level FlightAware ADS-B
Sun 03:45:12 AM 42.0770 -29.6080 79° East 588 677 35,000  Level FlightAware ADS-B
Sun 03:45:49 AM 42.0960 -29.4740 79° East 588 677 35,000  Level FlightAware ADS-B
Sun 03:46:24 AM 42.1140 -29.3500 79° East 588 677 35,000  Level FlightAware ADS-B
Sun 03:47:02 AM 42.1310 -29.2340 79° East 588 677 35,000  Level FlightAware ADS-B
Sun 03:47:45 AM 42.1540 -29.0540 80° East 588 677 35,000  Level FlightAware ADS-B
Sun 03:48:20 AM 42.1710 -28.9290 80° East 588 677 35,000  Level FlightAware ADS-B
Sun 03:48:58 AM 42.1890 -28.7970 80° East 589 678 35,000  Level FlightAware ADS-B
Sun 03:49:29 AM 42.2040 -28.6830 80° East 590 679 35,000  Level FlightAware ADS-B
Sun 03:50:08 AM 42.2210 -28.5570 80° East 589 678 35,000  Level FlightAware ADS-B
Sun 03:50:41 AM 42.2390 -28.4200 80° East 588 677 35,000  Level FlightAware ADS-B
Sun 03:51:12 AM 42.2520 -28.3160 80° East 588 677 35,000  Level FlightAware ADS-B
Sun 03:52:05 AM 42.2760 -28.1320 80° East 588 677 35,000  Level FlightAware ADS-B
Sun 03:52:40 AM 42.2940 -27.9890 80° East 589 678 35,000  Level FlightAware ADS-B
Sun 03:53:15 AM 42.3090 -27.8650 81° East 588 677 35,000  Level FlightAware ADS-B
Sun 03:53:57 AM 42.3260 -27.7340 80° East 588 677 35,000  Level FlightAware ADS-B
Sun 03:54:33 AM 42.3410 -27.6230 80° East 588 677 35,000  Level FlightAware ADS-B
Sun 03:55:09 AM 42.3550 -27.5120 80° East 588 677 35,000  Level FlightAware ADS-B
Sun 03:55:46 AM 42.3700 -27.3980 80° East 588 677 35,000  Level FlightAware ADS-B
Sun 03:56:22 AM 42.3840 -27.2870 80° East 588 677 35,000  Level FlightAware ADS-B
Sun 03:56:58 AM 42.3990 -27.1760 80° East 588 677 35,000  Level FlightAware ADS-B
Sun 03:57:37 AM 42.4220 -26.9230 83° East 579 666 35,000  Level FlightAware ADS-B
Sun 03:58:17 AM 42.4390 -26.7780 81° East 579 666 35,000  Level FlightAware ADS-B
Sun 03:58:58 AM 42.4530 -26.6550 81° East 579 666 35,000  Level FlightAware ADS-B
Sun 03:59:32 AM 42.4690 -26.5100 81° East 581 669 35,000  Level FlightAware ADS-B
Sun 04:00:04 AM 42.4830 -26.3940 81° East 583 671 35,000  Level FlightAware ADS-B
Sun 04:00:52 AM 42.5000 -26.2440 81° East 583 671 35,000  Level FlightAware ADS-B
Sun 04:01:28 AM 42.5130 -26.1340 81° East 583 671 35,000  Level FlightAware ADS-B
Sun 04:02:04 AM 42.5250 -26.0230 82° East 583 671 35,000  Level FlightAware ADS-B
Sun 04:02:40 AM 42.5380 -25.9120 81° East 583 671 35,000  Level FlightAware ADS-B
Sun 04:03:16 AM 42.5510 -25.8020 81° East 583 671 35,000  Level FlightAware ADS-B
Sun 04:03:52 AM 42.5640 -25.6910 81° East 583 671 35,000  Level FlightAware ADS-B
Sun 04:04:28 AM 42.5770 -25.5800 81° East 583 671 35,000  Level FlightAware ADS-B
Sun 04:05:04 AM 42.5900 -25.4700 81° East 583 671 35,000  Level FlightAware ADS-B
Sun 04:05:40 AM 42.6030 -25.3590 81° East 583 671 35,000  Level FlightAware ADS-B
Sun 04:06:16 AM 42.6160 -25.2480 81° East 583 671 35,000  Level FlightAware ADS-B
Sun 04:06:52 AM 42.6290 -25.1370 81° East 583 671 35,000  Level FlightAware ADS-B
Sun 04:07:28 AM 42.6420 -25.0270 81° East 583 671 35,000  Level FlightAware ADS-B
Sun 04:08:04 AM 42.6540 -24.9160 82° East 583 671 35,000  Level FlightAware ADS-B
Sun 04:08:41 AM 42.6680 -24.8020 80° East 583 671 35,000  Level FlightAware ADS-B
Sun 04:09:17 AM 42.6810 -24.6910 81° East 583 671 35,000  Level FlightAware ADS-B
Sun 04:09:53 AM 42.6930 -24.5800 82° East 583 671 35,000 17 Level FlightAware ADS-B
Sun 04:12:00 AM 42.7370 -24.1212 82° East  Level Estimated
Sun 04:13:00 AM 42.7572 -23.9042 83° East  Level Estimated
Sun 04:14:00 AM 42.7769 -23.6871 83° East  Level Estimated
Sun 04:15:00 AM 42.7963 -23.4699 83° East  Level Estimated
Sun 04:16:00 AM 42.8152 -23.2525 83° East  Level Estimated
Sun 04:17:00 AM 42.8337 -23.0350 83° East  Level Estimated
Sun 04:18:00 AM 42.8518 -22.8174 83° East  Level Estimated
Sun 04:19:00 AM 42.8695 -22.5996 84° East  Level Estimated
Sun 04:20:00 AM 42.8868 -22.3817 84° East  Level Estimated
Sun 04:21:00 AM 42.9037 -22.1637 84° East  Level Estimated
Sun 04:22:00 AM 42.9201 -21.9456 84° East  Level Estimated
Sun 04:23:00 AM 42.9362 -21.7273 84° East  Level Estimated
Sun 04:24:00 AM 42.9518 -21.5090 84° East  Level Estimated
Sun 04:25:00 AM 42.9670 -21.2905 84° East  Level Estimated
Sun 04:26:00 AM 42.9818 -21.0719 85° East  Level Estimated
Sun 04:27:00 AM 42.9962 -20.8533 85° East  Level Estimated
Sun 04:28:00 AM 43.0101 -20.6345 85° East  Level Estimated
Sun 04:29:00 AM 43.0237 -20.4156 85° East  Level Estimated
Sun 04:30:00 AM 43.0368 -20.1966 85° East  Level Estimated
Sun 04:31:00 AM 43.0495 -19.9776 85° East  Level Estimated
Sun 04:32:00 AM 43.0618 -19.7584 86° East  Level Estimated
Sun 04:33:00 AM 43.0737 -19.5388 86° East  Level Estimated
Sun 04:34:00 AM 43.0852 -19.3191 86° East  Level Estimated
Sun 04:35:00 AM 43.0962 -19.0993 86° East  Level Estimated
Sun 04:36:00 AM 43.1068 -18.8795 86° East  Level Estimated
Sun 04:37:00 AM 43.1170 -18.6596 86° East  Level Estimated
Sun 04:38:00 AM 43.1268 -18.4396 86° East  Level Estimated
Sun 04:39:00 AM 43.1362 -18.2195 87° East  Level Estimated
Sun 04:40:00 AM 43.1451 -17.9993 87° East  Level Estimated
Sun 04:41:00 AM 43.1537 -17.7792 87° East  Level Estimated
Sun 04:42:00 AM 43.1618 -17.5589 87° East  Level Estimated
Sun 04:43:00 AM 43.1694 -17.3386 87° East  Level Estimated
Sun 04:44:00 AM 43.1767 -17.1182 87° East  Level Estimated
Sun 04:45:00 AM 43.1835 -16.8978 87° East  Level Estimated
Sun 04:46:00 AM 43.1899 -16.6773 88° East  Level Estimated
Sun 04:47:00 AM 43.1959 -16.4568 88° East  Level Estimated
Sun 04:48:00 AM 43.2015 -16.2362 88° East  Level Estimated
Sun 04:49:00 AM 43.2066 -16.0156 88° East  Level Estimated
Sun 04:50:00 AM 43.2114 -15.7950 88° East  Level Estimated
Sun 04:51:00 AM 43.2156 -15.5743 88° East  Level Estimated
Sun 04:52:00 AM 43.2195 -15.3537 89° East  Level Estimated
Sun 04:53:00 AM 43.2230 -15.1329 89° East  Level Estimated
Sun 04:54:00 AM 43.2260 -14.9122 89° East  Level Estimated
Sun 04:55:00 AM 43.2286 -14.6914 89° East  Level Estimated
Sun 04:56:00 AM 43.2307 -14.4706 89° East  Level Estimated
Sun 04:57:00 AM 43.2325 -14.2499 89° East  Level Estimated
Sun 04:58:00 AM 43.2338 -14.0290 89° East  Level Estimated
Sun 04:59:00 AM 43.2347 -13.8082 90° East  Level Estimated
Sun 05:00:00 AM 43.2352 -13.5874 90° East  Level Estimated
Sun 05:01:00 AM 43.2352 -13.3666 90° East  Level Estimated
Sun 05:02:00 AM 43.2349 -13.1458 90° East  Level Estimated
Sun 05:03:00 AM 43.2341 -12.9257 90° East  Level Estimated
Sun 05:04:00 AM 43.2328 -12.7057 90° East  Level Estimated
Sun 05:05:00 AM 43.2312 -12.4856 91° East  Level Estimated
Sun 05:06:00 AM 43.2291 -12.2656 91° East  Level Estimated
Sun 05:07:00 AM 43.2266 -12.0456 91° East  Level Estimated
Sun 05:08:00 AM 43.2237 -11.8256 91° East  Level Estimated
Sun 05:08:30 AM 42.3870 -11.9290 91° East 553 636 36,000  Level FlightAware ADS-B
Sun 05:09:05 AM 42.3780 -11.8090 96° East 553 636 36,000  Level FlightAware ADS-B
Sun 05:09:40 AM 42.3700 -11.6900 95° East 552 635 36,000  Level FlightAware ADS-B
Sun 05:10:25 AM 42.3580 -11.5340 96° East 552 635 36,000  Level FlightAware ADS-B
Sun 05:11:00 AM 42.3510 -11.4300 95° East 552 635 36,000  Level FlightAware ADS-B
Sun 05:11:35 AM 42.3410 -11.3030 96° East 551 634 36,000  Level FlightAware ADS-B
Sun 05:12:07 AM 42.3320 -11.1910 96° East 552 635 36,000  Level FlightAware ADS-B
Sun 05:12:45 AM 42.3210 -11.0550 96° East 552 635 36,000  Level FlightAware ADS-B
Sun 05:13:20 AM 42.3110 -10.9360 96° East 551 634 36,000  Level FlightAware ADS-B
Sun 05:13:50 AM 42.3060 -10.8360 94° East 551 634 36,000  Level FlightAware ADS-B
Sun 05:14:15 AM 42.3110 -10.7630 85° East 541 623 36,000  Level FlightAware ADS-B
Sun 05:14:44 AM 42.3360 -10.6570 72° East 532 612 36,000  Level FlightAware ADS-B
Sun 05:15:19 AM 42.3660 -10.5480 70° East 531 611 36,000  Level FlightAware ADS-B
Sun 05:15:54 AM 42.3940 -10.4490 69° East 533 613 36,000  Level FlightAware ADS-B
Sun 05:16:34 AM 42.4300 -10.3220 69° East 533 613 36,000  Level FlightAware ADS-B
Sun 05:17:09 AM 42.4620 -10.2080 69° East 533 613 36,000  Level FlightAware ADS-B
Sun 05:17:44 AM 42.4920 -10.0980 70° East 534 615 36,000  Level FlightAware ADS-B
Sun 05:18:19 AM 42.5210 -9.9900 70° East 534 615 36,000  Level FlightAware ADS-B
Sun 05:18:54 AM 42.5520 -9.8780 69° East 534 615 36,000  Level FlightAware ADS-B
Sun 05:19:29 AM 42.5810 -9.7690 70° East 534 615 36,000  Level FlightAware ADS-B
Sun 05:20:04 AM 42.6110 -9.6590 70° East 535 616 36,000  Level FlightAware ADS-B
Sun 05:20:40 AM 42.6400 -9.5490 70° East 534 615 36,000  Level FlightAware ADS-B
Sun 05:21:14 AM 42.6700 -9.4400 69° East 535 616 36,000  Level FlightAware ADS-B
Sun 05:21:50 AM 42.5690 -9.8147 250° West 534 615 36,000  Level FlightAware ADS-B (LECO / LCG)
Sun 05:22:24 AM 42.7290 -9.2160 70° East 535 616 36,000  Level FlightAware ADS-B
Sun 05:22:59 AM 42.7570 -9.1090 70° East 536 617 36,000  Level FlightAware ADS-B
Sun 05:23:16 AM 42.7588 -9.1023 70° East 535 616 36,000  Level FlightAware ADS-B (LECO / LCG)
Sun 05:24:16 AM 42.8211 -8.8636 70° East 534 615 36,000  Level FlightAware ADS-B (LECO / LCG)
Sun 05:24:56 AM 42.8538 -8.7371 71° East 533 613 36,000  Level FlightAware ADS-B (LECO / LCG)
Sun 05:25:36 AM 42.8876 -8.6058 71° East 534 615 36,000  Level FlightAware ADS-B (LECO / LCG)
Sun 05:26:06 AM 42.9122 -8.5099 71° East 533 613 36,000  Level FlightAware ADS-B (LECO / LCG)
Sun 05:26:37 AM 42.9305 -8.4128 76° East 545 627 36,000  Level FlightAware ADS-B (LECO / LCG)
Sun 05:27:05 AM 42.9320 -8.3138 89° East 556 640 36,000  Level FlightAware ADS-B (LECO / LCG)
Sun 05:27:36 AM 42.9280 -8.2596 96° East 556 640 36,000  Level FlightAware ADS-B (LECO / LCG)
Sun 05:28:16 AM 42.9172 -8.0690 94° East 556 640 36,000  Level FlightAware ADS-B (LECO / LCG)
Sun 05:28:47 AM 42.9101 -7.9566 95° East 556 640 36,000  Level FlightAware ADS-B (LECO / LCG)
Sun 05:29:27 AM 42.9011 -7.8222 95° East 555 639 36,000  Level FlightAware ADS-B (LECO / LCG)
Sun 05:29:57 AM 42.8937 -7.7145 95° East 555 639 36,000  Level FlightAware ADS-B (LECO / LCG)
Sun 05:30:36 AM 42.8837 -7.5764 96° East 554 638 36,000  Level FlightAware ADS-B (LECO / LCG)
Sun 05:31:07 AM 42.8761 -7.4714 96° East 554 638 36,000  Level FlightAware ADS-B (LECO / LCG)
Sun 05:31:37 AM 42.8684 -7.3646 96° East 553 636 36,000  Level FlightAware ADS-B (LECO / LCG)
Sun 05:32:08 AM 42.8607 -7.2599 96° East 554 638 36,000  Level FlightAware ADS-B (LECO / LCG)
Sun 05:32:38 AM 42.8530 -7.1541 96° East 553 636 36,000  Level FlightAware ADS-B (LECO / LCG)
Sun 05:33:23 AM 42.8421 -7.0031 96° East 552 635 36,000  Level FlightAware ADS-B (LECO / LCG)
Sun 05:33:53 AM 42.8344 -6.8970 96° East 551 634 36,000  Level FlightAware ADS-B (LECO / LCG)
Sun 05:34:23 AM 42.8272 -6.7957 95° East 551 634 36,000  Level FlightAware ADS-B (LECO / LCG)
Sun 05:34:53 AM 42.8197 -6.6922 96° East 550 633 36,000  Level FlightAware ADS-B (LECO / LCG)
Sun 05:35:23 AM 42.8124 -6.5954 96° East 550 633 36,000  Level FlightAware ADS-B (LECO / LCG)
Sun 05:35:53 AM 42.8040 -6.4910 96° East 549 632 36,000  Level FlightAware ADS-B
Sun 05:36:22 AM 42.7960 -6.3880 96° East 548 631 36,000  Level FlightAware ADS-B
Sun 05:37:02 AM 42.7850 -6.2520 96° East 547 629 36,000  Level FlightAware ADS-B
Sun 05:37:37 AM 42.7740 -6.1300 97° East 546 628 36,000  Level FlightAware ADS-B
Sun 05:38:17 AM 42.7630 -5.9970 96° East 543 625 36,000  Level FlightAware ADS-B
Sun 05:38:52 AM 42.7520 -5.8780 97° East 541 623 36,000  Level FlightAware ADS-B
Sun 05:39:27 AM 42.7420 -5.7590 96° East 540 621 36,000  Level FlightAware ADS-B
Sun 05:40:02 AM 42.7320 -5.6430 97° East 540 621 36,000  Level FlightAware ADS-B
Sun 05:40:37 AM 42.7220 -5.5260 97° East 539 620 36,000  Level FlightAware ADS-B
Sun 05:41:12 AM 42.7110 -5.4060 97° East 538 619 36,000  Level FlightAware ADS-B
Sun 05:41:47 AM 42.7000 -5.2890 97° East 539 620 36,000  Level FlightAware ADS-B
Sun 05:42:22 AM 42.6900 -5.1720 97° East 539 620 36,000  Level FlightAware ADS-B
Sun 05:42:57 AM 42.6800 -5.0530 96° East 540 621 36,000  Level FlightAware ADS-B
Sun 05:43:37 AM 42.6680 -4.9210 97° East 540 621 36,000  Level FlightAware ADS-B
Sun 05:44:13 AM 42.6570 -4.7970 97° East 540 621 36,000  Level FlightAware ADS-B
Sun 05:44:48 AM 42.6470 -4.6880 97° East 539 620 36,000  Level FlightAware ADS-B
Sun 05:45:28 AM 42.6340 -4.5470 97° East 538 619 36,000  Level FlightAware ADS-B
Sun 05:45:58 AM 42.6240 -4.4460 98° East 538 619 36,000  Level FlightAware ADS-B
Sun 05:46:33 AM 42.6140 -4.3350 97° East 537 618 36,000  Level FlightAware ADS-B
Sun 05:47:08 AM 42.6010 -4.2110 98° East 537 618 36,000  Level FlightAware ADS-B
Sun 05:47:43 AM 42.5900 -4.0970 97° East 536 617 36,000  Level FlightAware ADS-B
Sun 05:48:18 AM 42.5790 -3.9820 97° East 536 617 36,000  Level FlightAware ADS-B
Sun 05:48:53 AM 42.5680 -3.8750 98° East 536 617 36,000  Level FlightAware ADS-B
Sun 05:49:34 AM 42.5530 -3.7270 98° East 536 617 36,000  Level FlightAware ADS-B
Sun 05:50:14 AM 42.5390 -3.5930 98° East 536 617 36,000  Level FlightAware ADS-B
Sun 05:50:44 AM 42.5280 -3.4930 98° East 536 617 36,000  Level FlightAware ADS-B
Sun 05:51:19 AM 42.5160 -3.3810 98° East 536 617 36,000  Level FlightAware ADS-B
Sun 05:51:58 AM 42.5020 -3.2520 98° East 537 618 36,000  Level FlightAware ADS-B
Sun 05:52:33 AM 42.4900 -3.1430 98° East 538 619 36,000  Level FlightAware ADS-B
Sun 05:53:08 AM 42.4770 -3.0230 98° East 539 620 36,000  Level FlightAware ADS-B
Sun 05:53:48 AM 42.4610 -2.8840 99° East 540 621 36,000  Level FlightAware ADS-B
Sun 05:54:23 AM 42.4400 -2.7660 104° East 538 619 36,000  Level FlightAware ADS-B
Sun 05:54:58 AM 42.4180 -2.6560 105° East 538 619 36,000  Level FlightAware ADS-B
Sun 05:55:48 AM 42.3840 -2.4920 106° East 537 618 36,000  Level FlightAware ADS-B
Sun 05:56:28 AM 42.3580 -2.3700 106° East 536 617 36,000  Level FlightAware ADS-B
Sun 05:57:06 AM 42.3310 -2.2400 106° East 537 618 36,000  Level FlightAware ADS-B
Sun 05:57:38 AM 42.3090 -2.1340 106° East 537 618 36,000  Level FlightAware ADS-B
Sun 05:58:15 AM 42.2840 -2.0160 106° East 537 618 36,000  Level FlightAware ADS-B
Sun 05:58:52 AM 42.2590 -1.8970 106° East 537 618 36,000  Level FlightAware ADS-B
Sun 05:59:24 AM 42.2370 -1.7940 106° East 537 618 36,000  Level FlightAware ADS-B
Sun 06:00:01 AM 42.2100 -1.6740 107° East 537 618 36,000  Level FlightAware ADS-B
Sun 06:00:38 AM 42.1850 -1.5610 107° East 536 617 36,000  Level FlightAware ADS-B
Sun 06:01:10 AM 42.1620 -1.4530 106° East 534 615 36,000  Level FlightAware ADS-B
Sun 06:01:43 AM 42.1390 -1.3500 107° East 532 612 36,000  Level FlightAware ADS-B
Sun 06:02:20 AM 42.1140 -1.2340 106° East 531 611 36,000  Level FlightAware ADS-B
Sun 06:02:57 AM 42.0870 -1.1140 107° East 531 611 36,000  Level FlightAware ADS-B
Sun 06:03:31 AM 42.0630 -1.0080 107° East 531 611 36,000  Level FlightAware ADS-B
Sun 06:04:04 AM 42.0400 -0.9010 106° East 531 611 36,000  Level FlightAware ADS-B
Sun 06:04:40 AM 42.0140 -0.7880 107° East 532 612 36,000  Level FlightAware ADS-B
Sun 06:05:17 AM 41.9880 -0.6710 107° East 532 612 36,000  Level FlightAware ADS-B
Sun 06:05:52 AM 41.9630 -0.5600 107° East 533 613 36,000  Level FlightAware ADS-B
Sun 06:06:24 AM 41.9400 -0.4570 107° East 533 613 36,000  Level FlightAware ADS-B
Sun 06:07:01 AM 41.9130 -0.3410 107° East 532 612 36,000  Level FlightAware ADS-B
Sun 06:07:36 AM 41.8880 -0.2330 107° East 532 612 36,000  Level FlightAware ADS-B
Sun 06:08:10 AM 41.8620 -0.1220 107° East 533 613 36,000  Level FlightAware ADS-B
Sun 06:08:45 AM 41.8370 -0.0140 107° East 533 613 36,000  Level FlightAware ADS-B
Sun 06:09:22 AM 41.8100 0.1030 107° East 534 615 36,000  Level FlightAware ADS-B
Sun 06:09:57 AM 41.7840 0.2130 108° East 534 615 36,000  Level FlightAware ADS-B
Sun 06:10:29 AM 41.7600 0.3150 107° East 536 617 36,000  Level FlightAware ADS-B
Sun 06:11:02 AM 41.7350 0.4190 108° East 537 618 36,000  Level FlightAware ADS-B
Sun 06:11:24 AM 41.7184 0.4901 107° East 537 618 36,000  Level FlightAware ADS-B (YBCS / CNS)
Sun 06:11:58 AM 41.6985 0.5752 107° East 539 620 36,000  Level FlightAware ADS-B (YBCS / CNS)
Sun 06:12:39 AM 41.6635 0.7234 107° East 539 620 36,000  Level FlightAware ADS-B (YBCS / CNS)
Sun 06:13:18 AM 41.6310 0.8522 109° East 538 619 36,000  Level FlightAware ADS-B (YBCS / CNS)
Sun 06:13:49 AM 41.6060 0.9465 109° East 540 621 36,000  Level FlightAware ADS-B (YBCS / CNS)
Sun 06:14:19 AM 41.5817 1.0392 109° East 540 621 36,000  Level FlightAware ADS-B (YBCS / CNS)
Sun 06:14:49 AM 41.5568 1.1327 110° East 540 621 36,000  Level FlightAware ADS-B (YBCS / CNS)
Sun 06:15:29 AM 41.5259 1.2554 109° East 540 621 36,000  Level FlightAware ADS-B (YBCS / CNS)
Sun 06:15:59 AM 41.5029 1.3579 107° East 539 620 36,000  Level FlightAware ADS-B (YBCS / CNS)
Sun 06:16:39 AM 41.4743 1.4841 107° East 539 620 36,000  Level FlightAware ADS-B (YBCS / CNS)
Sun 06:17:09 AM 41.4520 1.5804 107° East 538 619 36,000  Level FlightAware ADS-B (YBCS / CNS)
Sun 06:17:49 AM 41.4224 1.7058 107° East 538 619 36,000  Level FlightAware ADS-B (YBCS / CNS)
Sun 06:18:19 AM 41.3997 1.7970 108° East 536 617 36,000  Level FlightAware ADS-B (YBCS / CNS)
Sun 06:18:58 AM 41.3689 1.9143 109° East 537 618 36,000  Level FlightAware ADS-B (YBCS / CNS)
Sun 06:19:29 AM 41.3457 2.0190 106° East 538 619 36,000  Level FlightAware ADS-B (YBCS / CNS)
Sun 06:20:08 AM 41.3217 2.1452 104° East 540 621 36,000  Level FlightAware ADS-B (YBCS / CNS)
Sun 06:20:58 AM 41.2971 2.2824 103° East 539 620 36,000  Level FlightAware ADS-B (YBCS / CNS)
Sun 06:21:35 AM 41.2720 2.4240 103° East 538 619 36,000  Level FlightAware ADS-B
Sun 06:22:07 AM 41.2540 2.5280 103° East 537 618 36,000  Level FlightAware ADS-B
Sun 06:22:48 AM 41.2310 2.6570 103° East 536 617 36,000  Level FlightAware ADS-B
Sun 06:23:20 AM 41.2140 2.7610 102° East 536 617 36,000  Level FlightAware ADS-B
Sun 06:23:54 AM 41.1940 2.8710 104° East 536 617 36,000  Level FlightAware ADS-B
Sun 06:24:32 AM 41.1730 2.9930 103° East 536 617 36,000  Level FlightAware ADS-B
Sun 06:25:07 AM 41.1530 3.1030 104° East 535 616 36,000  Level FlightAware ADS-B
Sun 06:25:40 AM 41.1350 3.2030 103° East 535 616 36,000  Level FlightAware ADS-B
Sun 06:26:16 AM 41.1140 3.3240 103° East 534 615 36,000  Level FlightAware ADS-B
Sun 06:26:51 AM 41.0940 3.4360 103° East 533 613 36,000  Level FlightAware ADS-B
Sun 06:27:28 AM 41.0730 3.5510 104° East 531 611 36,000  Level FlightAware ADS-B
Sun 06:27:59 AM 41.0540 3.6510 104° East 532 612 36,000  Level FlightAware ADS-B
Sun 06:28:34 AM 41.0350 3.7540 104° East 529 609 36,000  Level FlightAware ADS-B
Sun 06:29:10 AM 41.0130 3.8750 104° East 532 612 36,000  Level FlightAware ADS-B
Sun 06:29:47 AM 40.9910 3.9880 104° East 532 612 36,000  Level FlightAware ADS-B
Sun 06:30:18 AM 40.9760 4.0710 103° East 532 612 36,000  Level FlightAware ADS-B
Sun 06:30:56 AM 40.9500 4.2070 104° East 531 611 36,000  Level FlightAware ADS-B
Sun 06:31:31 AM 40.9290 4.3180 104° East 530 610 36,000  Level FlightAware ADS-B
Sun 06:32:08 AM 40.9070 4.4310 104° East 529 609 36,000  Level FlightAware ADS-B
Sun 06:32:38 AM 40.8870 4.5320 105° East 529 609 36,000  Level FlightAware ADS-B
Sun 06:33:13 AM 40.8670 4.6380 104° East 528 608 36,000  Level FlightAware ADS-B
Sun 06:33:51 AM 40.8490 4.7550 101° East 530 610 36,000  Level FlightAware ADS-B
Sun 06:34:27 AM 40.8380 4.8730 97° East 530 610 36,000  Level FlightAware ADS-B
Sun 06:34:59 AM 40.8280 4.9740 97° East 530 610 36,000  Level FlightAware ADS-B
Sun 06:35:36 AM 40.8160 5.0970 97° East 529 609 36,000  Level FlightAware ADS-B
Sun 06:36:10 AM 40.8060 5.2060 97° East 528 608 36,000  Level FlightAware ADS-B
Sun 06:36:45 AM 40.7950 5.3140 98° East 528 608 36,000  Level FlightAware ADS-B
Sun 06:37:20 AM 40.7840 5.4280 97° East 527 606 36,000  Level FlightAware ADS-B
Sun 06:37:56 AM 40.7720 5.5450 98° East 527 606 36,000  Level FlightAware ADS-B
Sun 06:38:32 AM 40.7610 5.6530 98° East 527 606 36,000  Level FlightAware ADS-B
Sun 06:39:08 AM 40.7490 5.7720 98° East 528 608 36,000  Level FlightAware ADS-B
Sun 06:39:49 AM 40.7360 5.9000 98° East 529 609 36,000  Level FlightAware ADS-B
Sun 06:40:24 AM 40.7240 6.0110 98° East 530 610 36,000  Level FlightAware ADS-B
Sun 06:40:58 AM 40.7130 6.1210 97° East 529 609 36,000  Level FlightAware ADS-B
Sun 06:41:33 AM 40.7010 6.2340 98° East 530 610 36,000  Level FlightAware ADS-B
Sun 06:42:08 AM 40.6890 6.3450 98° East 531 611 36,000  Level FlightAware ADS-B
Sun 06:42:48 AM 40.6750 6.4750 98° East 530 610 36,000  Level FlightAware ADS-B
Sun 06:43:23 AM 40.6640 6.5840 98° East 530 610 36,000  Level FlightAware ADS-B
Sun 06:43:58 AM 40.6520 6.6980 98° East 529 609 36,000  Level FlightAware ADS-B
Sun 06:44:38 AM 40.6380 6.8250 98° East 529 609 36,000  Level FlightAware ADS-B
Sun 06:45:08 AM 40.6270 6.9210 99° East 529 609 36,000  Level FlightAware ADS-B
Sun 06:45:48 AM 40.6130 7.0480 98° East 529 609 36,000  Level FlightAware ADS-B
Sun 06:46:18 AM 40.6030 7.1440 98° East 529 609 36,000  Level FlightAware ADS-B
Sun 06:46:54 AM 40.5900 7.2590 98° East 529 609 36,000  Level FlightAware ADS-B
Sun 06:47:28 AM 40.5770 7.3690 99° East 529 609 36,000  Level FlightAware ADS-B
Sun 06:48:04 AM 40.5670 7.4820 97° East 533 613 36,000  Level FlightAware ADS-B
Sun 06:48:39 AM 40.5700 7.5930 88° East 536 617 36,000  Level FlightAware ADS-B
Sun 06:49:28 AM 40.5690 7.7500 90° East 533 613 36,000  Level FlightAware ADS-B
Sun 06:50:03 AM 40.5530 7.8670 100° East 531 611 36,000  Level FlightAware ADS-B
Sun 06:50:38 AM 40.5350 7.9790 102° East 532 612 36,000 86 Level FlightAware ADS-B
Sun 06:51:13 AM 40.5180 8.0890 101° East 533 613 36,100 514 Climbing FlightAware ADS-B
Sun 06:51:48 AM 40.5000 8.2000 102° East 538 619 36,600 761 Climbing FlightAware ADS-B
Sun 06:52:24 AM 40.4810 8.3120 103° East 539 620 37,000 343 Climbing FlightAware ADS-B
Sun 06:52:58 AM 40.4630 8.4240 102° East 537 618 37,000  Level FlightAware ADS-B
Sun 06:53:33 AM 40.4440 8.5360 103° East 537 618 37,000  Level FlightAware ADS-B
Sun 06:54:08 AM 40.4250 8.6460 103° East 535 616 37,000  Level FlightAware ADS-B
Sun 06:54:48 AM 40.4030 8.7730 103° East 535 616 37,000  Level FlightAware ADS-B
Sun 06:55:28 AM 40.3810 8.8990 103° East 532 612 37,000  Level FlightAware ADS-B
Sun 06:55:58 AM 40.3640 8.9940 103° East 532 612 37,000  Level FlightAware ADS-B
Sun 06:56:33 AM 40.3440 9.1050 103° East 532 612 37,000  Level FlightAware ADS-B
Sun 06:57:13 AM 40.3230 9.2250 103° East 533 613 37,000  Level FlightAware ADS-B
Sun 06:57:48 AM 40.3020 9.3370 104° East 534 615 37,000  Level FlightAware ADS-B
Sun 06:58:35 AM 40.2750 9.4890 103° East 534 615 37,000  Level FlightAware ADS-B
Sun 06:59:10 AM 40.2550 9.6000 103° East 534 615 37,000  Level FlightAware ADS-B
Sun 06:59:50 AM 40.2330 9.7260 103° East 532 612 37,000  Level FlightAware ADS-B
Sun 07:00:30 AM 40.2100 9.8510 104° East 530 610 37,000  Level FlightAware ADS-B
Sun 07:01:01 AM 40.1960 9.9280 103° East 529 609 37,000  Level FlightAware ADS-B
Sun 07:01:37 AM 40.1720 10.0580 104° East 529 609 37,000  Level FlightAware ADS-B
Sun 07:02:12 AM 40.1520 10.1690 103° East 527 606 37,000  Level FlightAware ADS-B
Sun 07:02:47 AM 40.1320 10.2760 104° East 527 606 37,000  Level FlightAware ADS-B
Sun 07:03:24 AM 40.1100 10.3910 104° East 528 608 37,000  Level FlightAware ADS-B
Sun 07:03:56 AM 40.0910 10.4950 103° East 528 608 37,000  Level FlightAware ADS-B
Sun 07:04:32 AM 40.0700 10.6050 104° East 528 608 37,000  Level FlightAware ADS-B
Sun 07:05:08 AM 40.0490 10.7160 104° East 528 608 37,000  Level FlightAware ADS-B
Sun 07:05:44 AM 40.0270 10.8280 104° East 527 606 37,000  Level FlightAware ADS-B
Sun 07:06:16 AM 40.0090 10.9240 104° East 527 606 37,000  Level FlightAware ADS-B
Sun 07:06:52 AM 39.9870 11.0390 104° East 527 606 37,000  Level FlightAware ADS-B
Sun 07:07:24 AM 39.9690 11.1320 104° East 527 606 37,000  Level FlightAware ADS-B
Sun 07:08:02 AM 39.9450 11.2520 105° East 527 606 37,000  Level FlightAware ADS-B
Sun 07:08:37 AM 39.9250 11.3550 104° East 527 606 37,000  Level FlightAware ADS-B
Sun 07:09:14 AM 39.9020 11.4730 104° East 526 605 37,000  Level FlightAware ADS-B
Sun 07:09:54 AM 39.8770 11.5980 105° East 525 604 37,000  Level FlightAware ADS-B
Sun 07:10:30 AM 39.8550 11.7060 105° East 523 602 37,000  Level FlightAware ADS-B
Sun 07:11:02 AM 39.8360 11.8020 104° East 522 601 37,000  Level FlightAware ADS-B
Sun 07:11:40 AM 39.8130 11.9170 105° East 521 600 37,000  Level FlightAware ADS-B
Sun 07:12:14 AM 39.7930 12.0170 105° East 520 598 37,000  Level FlightAware ADS-B
Sun 07:12:48 AM 39.7710 12.1240 105° East 520 598 37,000  Level FlightAware ADS-B
Sun 07:13:26 AM 39.7470 12.2390 105° East 519 597 37,000  Level FlightAware ADS-B
Sun 07:14:00 AM 39.7260 12.3410 105° East 519 597 37,000  Level FlightAware ADS-B
Sun 07:14:37 AM 39.7040 12.4470 105° East 519 597 37,000  Level FlightAware ADS-B
Sun 07:15:08 AM 39.6830 12.5430 106° East 518 596 37,000  Level FlightAware ADS-B
Sun 07:15:40 AM 39.6640 12.6350 105° East 518 596 37,000  Level FlightAware ADS-B
Sun 07:16:18 AM 39.6390 12.7530 105° East 518 596 37,000  Level FlightAware ADS-B
Sun 07:16:54 AM 39.6160 12.8620 105° East 518 596 37,000  Level FlightAware ADS-B
Sun 07:17:31 AM 39.5920 12.9740 106° East 518 596 37,000  Level FlightAware ADS-B
Sun 07:18:03 AM 39.5720 13.0700 105° East 517 595 37,000  Level FlightAware ADS-B
Sun 07:18:39 AM 39.5480 13.1790 106° East 517 595 37,000  Level FlightAware ADS-B
Sun 07:19:17 AM 39.5240 13.2900 106° East 518 596 37,000  Level FlightAware ADS-B
Sun 07:19:49 AM 39.5030 13.3850 106° East 518 596 37,000  Level FlightAware ADS-B
Sun 07:20:27 AM 39.4780 13.4990 106° East 518 596 37,000  Level FlightAware ADS-B
Sun 07:20:59 AM 39.4570 13.5950 106° East 518 596 37,000  Level FlightAware ADS-B
Sun 07:21:35 AM 39.4330 13.7030 106° East 518 596 37,000  Level FlightAware ADS-B
Sun 07:22:07 AM 39.4120 13.7980 106° East 517 595 37,000  Level FlightAware ADS-B
Sun 07:22:41 AM 39.3900 13.8980 106° East 517 595 37,000  Level FlightAware ADS-B
Sun 07:23:19 AM 39.3640 14.0120 106° East 517 595 37,000  Level FlightAware ADS-B
Sun 07:23:55 AM 39.3400 14.1160 107° East 516 594 37,000  Level FlightAware ADS-B
Sun 07:24:31 AM 39.3150 14.2230 107° East 516 594 37,000  Level FlightAware ADS-B
Sun 07:25:03 AM 39.2930 14.3180 107° East 515 593 37,000  Level FlightAware ADS-B
Sun 07:25:38 AM 39.2600 14.4170 113° Southeast 512 589 37,000  Level FlightAware ADS-B
Sun 07:26:16 AM 39.2210 14.5190 116° Southeast 510 587 37,000  Level FlightAware ADS-B
Sun 07:26:46 AM 39.1910 14.5980 116° Southeast 510 587 37,000  Level FlightAware ADS-B
Sun 07:27:23 AM 39.1510 14.7040 116° Southeast 508 585 37,000  Level FlightAware ADS-B
Sun 07:27:59 AM 39.1140 14.8010 116° Southeast 508 585 37,000  Level FlightAware ADS-B
Sun 07:28:35 AM 39.0760 14.8980 117° Southeast 508 585 37,000  Level FlightAware ADS-B
Sun 07:29:09 AM 39.0410 14.9890 116° Southeast 507 583 37,000  Level FlightAware ADS-B
Sun 07:29:43 AM 39.0050 15.0830 116° Southeast 507 583 37,000  Level FlightAware ADS-B
Sun 07:30:20 AM 38.9660 15.1820 117° Southeast 507 583 37,000  Level FlightAware ADS-B
Sun 07:30:57 AM 38.9270 15.2810 117° Southeast 507 583 37,000  Level FlightAware ADS-B
Sun 07:31:27 AM 38.8950 15.3620 117° Southeast 507 583 37,000  Level FlightAware ADS-B
Sun 07:32:04 AM 38.8560 15.4610 117° Southeast 506 582 37,000  Level FlightAware ADS-B
Sun 07:32:41 AM 38.8180 15.5590 116° Southeast 505 581 37,000  Level FlightAware ADS-B
Sun 07:33:14 AM 38.7830 15.6480 117° Southeast 504 580 37,000  Level FlightAware ADS-B
Sun 07:33:49 AM 38.7470 15.7390 117° Southeast 504 580 37,000  Level FlightAware ADS-B
Sun 07:34:25 AM 38.7080 15.8370 117° Southeast 504 580 37,000  Level FlightAware ADS-B
Sun 07:35:00 AM 38.6700 15.9310 117° Southeast 502 578 37,000  Level FlightAware ADS-B
Sun 07:35:33 AM 38.6350 16.0150 118° Southeast 501 577 37,000  Level FlightAware ADS-B
Sun 07:36:10 AM 38.5990 16.1140 115° Southeast 500 575 37,000  Level FlightAware ADS-B
Sun 07:36:39 AM 38.5840 16.1990 103° East 497 572 37,000  Level FlightAware ADS-B
Sun 07:37:12 AM 38.5760 16.2930 96° East 497 572 37,000  Level FlightAware ADS-B
Sun 07:37:45 AM 38.5660 16.3880 98° East 497 572 37,000  Level FlightAware ADS-B
Sun 07:38:26 AM 38.5550 16.5110 96° East 497 572 37,000  Level FlightAware ADS-B
Sun 07:38:58 AM 38.5450 16.6050 98° East 497 572 37,000  Level FlightAware ADS-B
Sun 07:39:31 AM 38.5360 16.6990 97° East 498 573 37,000  Level FlightAware ADS-B
Sun 07:40:06 AM 38.5260 16.8020 97° East 498 573 37,000  Level FlightAware ADS-B
Sun 07:40:44 AM 38.5150 16.9140 97° East 497 572 37,000  Level FlightAware ADS-B
Sun 07:41:17 AM 38.5050 17.0110 97° East 496 571 37,000  Level FlightAware ADS-B
Sun 07:41:52 AM 38.4950 17.1100 97° East 495 570 37,000  Level FlightAware ADS-B
Sun 07:42:29 AM 38.4840 17.2180 97° East 495 570 37,000  Level FlightAware ADS-B
Sun 07:43:05 AM 38.4740 17.3230 97° East 494 568 37,000  Level FlightAware ADS-B
Sun 07:43:36 AM 38.4650 17.4110 97° East 494 568 37,000  Level FlightAware ADS-B
Sun 07:44:13 AM 38.4530 17.5180 98° East 494 568 37,000  Level FlightAware ADS-B
Sun 07:44:49 AM 38.4420 17.6240 98° East 494 568 37,000  Level FlightAware ADS-B
Sun 07:45:25 AM 38.4320 17.7260 97° East 494 568 37,000  Level FlightAware ADS-B
Sun 07:45:57 AM 38.4220 17.8180 98° East 495 570 37,000  Level FlightAware ADS-B
Sun 07:46:33 AM 38.4100 17.9240 98° East 496 571 37,000  Level FlightAware ADS-B
Sun 07:47:09 AM 38.3990 18.0250 98° East 497 572 37,000  Level FlightAware ADS-B
Sun 07:47:41 AM 38.3890 18.1200 98° East 498 573 37,000  Level FlightAware ADS-B
Sun 07:48:17 AM 38.3780 18.2250 98° East 499 574 37,000  Level FlightAware ADS-B
Sun 07:48:53 AM 38.3660 18.3310 98° East 499 574 37,000  Level FlightAware ADS-B
Sun 07:49:29 AM 38.3550 18.4340 98° East 500 575 37,000  Level FlightAware ADS-B
Sun 07:50:03 AM 38.3440 18.5330 98° East 500 575 37,000  Level FlightAware ADS-B
Sun 07:50:39 AM 38.3320 18.6380 98° East 501 577 37,000  Level FlightAware ADS-B
Sun 07:51:15 AM 38.3200 18.7450 98° East 502 578 37,000  Level FlightAware ADS-B
Sun 07:51:45 AM 38.3090 18.8330 99° East 503 579 37,000  Level FlightAware ADS-B
Sun 07:52:23 AM 38.2970 18.9410 98° East 505 581 37,000  Level FlightAware ADS-B
Sun 07:53:04 AM 38.2850 19.0410 99° East 505 581 37,000  Level FlightAware ADS-B
Sun 07:53:40 AM 38.2750 19.1310 98° East 505 581 37,000  Level FlightAware ADS-B
Sun 07:54:15 AM 38.2520 19.2320 106° East 502 578 37,000  Level FlightAware ADS-B
Sun 07:54:36 AM 38.2360 19.2900 109° East 508 585 37,000  Level FlightAware ADS-B
Sun 07:55:13 AM 38.2050 19.4000 110° East 507 583 37,000  Level FlightAware ADS-B
Sun 07:55:53 AM 38.1730 19.5140 110° East 505 581 37,000  Level FlightAware ADS-B
Sun 07:56:28 AM 38.1460 19.6110 109° East 503 579 37,000  Level FlightAware ADS-B
Sun 07:57:09 AM 38.1140 19.7270 109° East 501 577 37,000  Level FlightAware ADS-B
Sun 07:57:54 AM 38.0780 19.8530 110° East 500 575 37,000  Level FlightAware ADS-B
Sun 07:58:36 AM 38.0380 19.9950 110° East 498 573 37,000  Level FlightAware ADS-B
Sun 07:59:17 AM 38.0120 20.0890 109° East 498 573 37,000  Level FlightAware ADS-B
Sun 07:59:49 AM 37.9800 20.1950 111° Southeast 495 570 37,000  Level FlightAware ADS-B
Sun 08:00:28 AM 37.9500 20.3020 110° East 495 570 37,000  Level FlightAware ADS-B
Sun 08:00:59 AM 37.9270 20.3800 110° East 495 570 37,000  Level FlightAware ADS-B
Sun 08:01:37 AM 37.9000 20.4740 110° East 495 570 37,000  Level FlightAware ADS-B
Sun 08:02:13 AM 37.8670 20.5850 111° Southeast 497 572 37,000  Level FlightAware ADS-B
Sun 08:02:45 AM 37.8410 20.6730 110° East 496 571 37,000  Level FlightAware ADS-B
Sun 08:03:21 AM 37.8130 20.7700 110° East 498 573 37,000  Level FlightAware ADS-B
Sun 08:03:58 AM 37.7820 20.8730 111° Southeast 498 573 37,000  Level FlightAware ADS-B
Sun 08:04:38 AM 37.7530 20.9720 110° East 498 573 37,000  Level FlightAware ADS-B
Sun 08:05:11 AM 37.7240 21.0720 110° East 499 574 37,000  Level FlightAware ADS-B
Sun 08:05:48 AM 37.6920 21.1750 111° Southeast 500 575 37,000  Level FlightAware ADS-B
Sun 08:06:21 AM 37.6660 21.2640 110° East 500 575 37,000  Level FlightAware ADS-B
Sun 08:06:56 AM 37.6370 21.3600 111° Southeast 500 575 37,000  Level FlightAware ADS-B
Sun 08:07:32 AM 37.6080 21.4570 111° Southeast 499 574 37,000  Level FlightAware ADS-B
Sun 08:08:09 AM 37.5780 21.5590 110° East 496 571 37,000  Level FlightAware ADS-B
Sun 08:08:44 AM 37.5490 21.6530 111° Southeast 495 570 37,000  Level FlightAware ADS-B
Sun 08:09:19 AM 37.5210 21.7450 111° Southeast 493 567 37,000  Level FlightAware ADS-B
Sun 08:09:53 AM 37.4930 21.8380 111° Southeast 491 565 37,000  Level FlightAware ADS-B
Sun 08:10:28 AM 37.4650 21.9310 111° Southeast 491 565 37,000  Level FlightAware ADS-B
Sun 08:11:03 AM 37.4360 22.0230 112° Southeast 491 565 37,000  Level FlightAware ADS-B
Sun 08:11:38 AM 37.4080 22.1160 111° Southeast 491 565 37,000  Level FlightAware ADS-B
Sun 08:12:13 AM 37.3840 22.1930 111° Southeast 492 566 37,000  Level FlightAware ADS-B
Sun 08:12:49 AM 37.3490 22.3050 111° Southeast 495 570 37,000  Level FlightAware ADS-B
Sun 08:13:22 AM 37.3210 22.3940 112° Southeast 495 570 37,000  Level FlightAware ADS-B
Sun 08:13:59 AM 37.2900 22.4920 112° Southeast 495 570 37,000  Level FlightAware ADS-B
Sun 08:14:35 AM 37.2590 22.5890 112° Southeast 494 568 37,000  Level FlightAware ADS-B
Sun 08:15:06 AM 37.2330 22.6710 112° Southeast 495 570 37,000  Level FlightAware ADS-B
Sun 08:15:42 AM 37.2020 22.7690 112° Southeast 495 570 37,000  Level FlightAware ADS-B
Sun 08:16:19 AM 37.1720 22.8620 112° Southeast 495 570 37,000  Level FlightAware ADS-B
Sun 08:16:54 AM 37.1410 22.9590 112° Southeast 496 571 37,000  Level FlightAware ADS-B
Sun 08:17:27 AM 37.1130 23.0480 112° Southeast 497 572 37,000  Level FlightAware ADS-B
Sun 08:18:02 AM 37.0840 23.1400 112° Southeast 496 571 37,000  Level FlightAware ADS-B
Sun 08:18:38 AM 37.0530 23.2390 111° Southeast 495 570 37,000  Level FlightAware ADS-B
Sun 08:19:15 AM 37.0210 23.3380 112° Southeast 496 571 37,000  Level FlightAware ADS-B
Sun 08:19:47 AM 36.9940 23.4220 112° Southeast 497 572 37,000  Level FlightAware ADS-B
Sun 08:20:24 AM 36.9620 23.5210 112° Southeast 496 571 37,000  Level FlightAware ADS-B
Sun 08:20:57 AM 36.9350 23.6050 112° Southeast 496 571 37,000  Level FlightAware ADS-B
Sun 08:21:32 AM 36.9040 23.7010 112° Southeast 497 572 37,000  Level FlightAware ADS-B
Sun 08:22:09 AM 36.8720 23.7970 113° Southeast 497 572 37,000  Level FlightAware ADS-B
Sun 08:22:39 AM 36.8460 23.8790 112° Southeast 497 572 37,000  Level FlightAware ADS-B
Sun 08:23:16 AM 36.8130 23.9760 113° Southeast 498 573 37,000  Level FlightAware ADS-B
Sun 08:23:52 AM 36.7800 24.0740 113° Southeast 498 573 37,000  Level FlightAware ADS-B
Sun 08:24:29 AM 36.7480 24.1700 113° Southeast 497 572 37,000  Level FlightAware ADS-B
Sun 08:25:02 AM 36.7180 24.2560 113° Southeast 497 572 37,000  Level FlightAware ADS-B
Sun 08:25:36 AM 36.6870 24.3480 113° Southeast 498 573 37,000  Level FlightAware ADS-B
Sun 08:26:11 AM 36.6560 24.4390 113° Southeast 497 572 37,000  Level FlightAware ADS-B
Sun 08:26:50 AM 36.6220 24.5410 113° Southeast 498 573 37,000  Level FlightAware ADS-B
Sun 08:27:20 AM 36.5940 24.6200 114° Southeast 499 574 37,000  Level FlightAware ADS-B
Sun 08:27:58 AM 36.5610 24.7190 113° Southeast 500 575 37,000  Level FlightAware ADS-B
Sun 08:28:34 AM 36.5280 24.8140 113° Southeast 500 575 37,000  Level FlightAware ADS-B
Sun 08:29:06 AM 36.4990 24.8990 113° Southeast 502 578 37,000  Level FlightAware ADS-B
Sun 08:29:41 AM 36.4650 24.9940 114° Southeast 503 579 37,000  Level FlightAware ADS-B
Sun 08:30:17 AM 36.4340 25.0850 113° Southeast 504 580 37,000  Level FlightAware ADS-B
Sun 08:30:55 AM 36.3990 25.1850 113° Southeast 505 581 37,000  Level FlightAware ADS-B
Sun 08:31:27 AM 36.3670 25.2770 113° Southeast 506 582 37,000  Level FlightAware ADS-B
Sun 08:32:01 AM 36.3350 25.3690 113° Southeast 506 582 37,000  Level FlightAware ADS-B
Sun 08:32:39 AM 36.3000 25.4700 113° Southeast 507 583 37,000  Level FlightAware ADS-B
Sun 08:33:11 AM 36.2700 25.5540 114° Southeast 507 583 37,000  Level FlightAware ADS-B
Sun 08:33:47 AM 36.2360 25.6480 114° Southeast 506 582 37,000  Level FlightAware ADS-B
Sun 08:34:24 AM 36.2010 25.7470 114° Southeast 506 582 37,000  Level FlightAware ADS-B
Sun 08:34:59 AM 36.1680 25.8400 114° Southeast 505 581 37,000  Level FlightAware ADS-B
Sun 08:35:31 AM 36.1370 25.9260 114° Southeast 506 582 37,000  Level FlightAware ADS-B
Sun 08:36:07 AM 36.1040 26.0190 114° Southeast 506 582 37,000  Level FlightAware ADS-B
Sun 08:36:44 AM 36.0690 26.1170 114° Southeast 506 582 37,000  Level FlightAware ADS-B
Sun 08:37:19 AM 36.0350 26.2110 114° Southeast 508 585 37,000  Level FlightAware ADS-B
Sun 08:37:51 AM 36.0040 26.2960 114° Southeast 508 585 37,000  Level FlightAware ADS-B
Sun 08:38:27 AM 35.9690 26.3910 114° Southeast 507 583 37,000  Level FlightAware ADS-B
Sun 08:39:03 AM 35.9350 26.4860 114° Southeast 508 585 37,000  Level FlightAware ADS-B
Sun 08:39:36 AM 35.9040 26.5710 114° Southeast 508 585 37,000  Level FlightAware ADS-B
Sun 08:40:12 AM 35.8680 26.6660 115° Southeast 509 586 37,000  Level FlightAware ADS-B
Sun 08:40:55 AM 35.8270 26.7800 114° Southeast 508 585 37,000  Level FlightAware ADS-B
Sun 08:41:49 AM 35.7800 26.9080 114° Southeast 508 585 37,000  Level FlightAware ADS-B
Sun 08:42:25 AM 35.7380 27.0180 115° Southeast 509 586 37,000  Level FlightAware ADS-B
Sun 08:43:01 AM 35.7030 27.1120 115° Southeast 508 585 37,000  Level FlightAware ADS-B
Sun 08:43:37 AM 35.6670 27.2080 115° Southeast 508 585 37,000  Level FlightAware ADS-B
Sun 08:44:10 AM 35.6350 27.2930 115° Southeast 509 586 37,000  Level FlightAware ADS-B
Sun 08:44:45 AM 35.6000 27.3870 115° Southeast 506 582 37,000  Level FlightAware ADS-B
Sun 08:45:23 AM 35.5630 27.4850 115° Southeast 507 583 37,000  Level FlightAware ADS-B
Sun 08:45:57 AM 35.5290 27.5740 115° Southeast 510 587 37,000  Level FlightAware ADS-B
Sun 08:46:31 AM 35.4960 27.6630 114° Southeast 510 587 37,000  Level FlightAware ADS-B
Sun 08:47:07 AM 35.4590 27.7580 116° Southeast 511 588 37,000  Level FlightAware ADS-B
Sun 08:47:39 AM 35.4280 27.8410 115° Southeast 511 588 37,000  Level FlightAware ADS-B
Sun 08:48:15 AM 35.3910 27.9370 115° Southeast 510 587 37,000  Level FlightAware ADS-B
Sun 08:48:53 AM 35.3530 28.0360 115° Southeast 511 588 37,000  Level FlightAware ADS-B
Sun 08:49:27 AM 35.3180 28.1260 115° Southeast 512 589 37,000  Level FlightAware ADS-B
Sun 08:49:59 AM 35.2860 28.2090 115° Southeast 513 590 37,000  Level FlightAware ADS-B
Sun 08:50:33 AM 35.2530 28.2950 115° Southeast 510 587 37,000  Level FlightAware ADS-B
Sun 08:51:11 AM 35.2120 28.3990 116° Southeast 514 592 37,000  Level FlightAware ADS-B
Sun 08:51:43 AM 35.1800 28.4800 116° Southeast 514 592 37,000  Level FlightAware ADS-B
Sun 08:52:17 AM 35.1440 28.5710 116° Southeast 514 592 37,000  Level FlightAware ADS-B
Sun 08:53:09 AM 35.0910 28.7050 116° Southeast 514 592 37,000  Level FlightAware ADS-B
Sun 08:53:43 AM 35.0550 28.7960 116° Southeast 513 590 37,000  Level FlightAware ADS-B
Sun 08:54:17 AM 35.0220 28.8780 116° Southeast 514 592 37,000  Level FlightAware ADS-B
Sun 08:55:03 AM 34.9720 29.0050 116° Southeast 514 592 37,000  Level FlightAware ADS-B
Sun 08:55:54 AM 34.9250 29.1260 115° Southeast 514 592 37,000  Level FlightAware ADS-B
Sun 08:56:28 AM 34.8850 29.2240 116° Southeast 514 592 37,000  Level FlightAware ADS-B
Sun 08:57:10 AM 34.8420 29.3330 116° Southeast 513 590 37,000  Level FlightAware ADS-B
Sun 08:57:54 AM 34.7960 29.4480 116° Southeast 513 590 37,000  Level FlightAware ADS-B
Sun 08:58:40 AM 34.7530 29.5560 116° Southeast 513 590 37,000  Level FlightAware ADS-B
Sun 08:59:09 AM 34.7170 29.6450 116° Southeast 513 590 37,000  Level FlightAware ADS-B
Sun 08:59:45 AM 34.6810 29.7340 116° Southeast 512 589 37,000  Level FlightAware ADS-B
Sun 09:00:25 AM 34.6400 29.8360 116° Southeast 513 590 37,000  Level FlightAware ADS-B
Sun 09:00:55 AM 34.6120 29.9040 117° Southeast 513 590 37,000  Level FlightAware ADS-B
Sun 09:01:32 AM 34.5790 29.9860 116° Southeast 513 590 37,000  Level FlightAware ADS-B
Sun 09:02:05 AM 34.5310 30.0890 119° Southeast 513 590 37,000  Level FlightAware ADS-B
Sun 09:02:50 AM 34.4750 30.2060 120° Southeast 514 592 37,000  Level FlightAware ADS-B
Sun 09:03:25 AM 34.4350 30.2870 121° Southeast 515 593 37,000  Level FlightAware ADS-B
Sun 09:03:59 AM 34.3930 30.3740 120° Southeast 516 594 37,000  Level FlightAware ADS-B
Sun 09:04:35 AM 34.3490 30.4650 120° Southeast 517 595 37,000  Level FlightAware ADS-B
Sun 09:05:10 AM 34.3050 30.5550 121° Southeast 513 590 37,000  Level FlightAware ADS-B
Sun 09:05:46 AM 34.2620 30.6430 121° Southeast 513 590 37,000  Level FlightAware ADS-B
Sun 09:06:21 AM 34.2170 30.7330 121° Southeast 514 592 37,000  Level FlightAware ADS-B
Sun 09:07:02 AM 34.1680 30.8330 121° Southeast 514 592 37,000  Level FlightAware ADS-B
Sun 09:07:38 AM 34.1240 30.9220 121° Southeast 515 593 37,000  Level FlightAware ADS-B
Sun 09:08:09 AM 34.0890 30.9930 121° Southeast 515 593 37,000  Level FlightAware ADS-B
Sun 09:08:47 AM 34.0380 31.0960 121° Southeast 516 594 37,000  Level FlightAware ADS-B
Sun 09:09:23 AM 33.9960 31.1790 121° Southeast 517 595 37,000  Level FlightAware ADS-B
Sun 09:09:59 AM 33.9510 31.2710 121° Southeast 518 596 37,000  Level FlightAware ADS-B
Sun 09:10:29 AM 33.9130 31.3470 121° Southeast 518 596 37,000  Level FlightAware ADS-B
Sun 09:11:04 AM 33.8730 31.4280 121° Southeast 518 596 37,000  Level FlightAware ADS-B
Sun 09:11:42 AM 33.8270 31.5210 121° Southeast 519 597 37,000  Level FlightAware ADS-B
Sun 09:12:14 AM 33.7830 31.6090 121° Southeast 520 598 37,000  Level FlightAware ADS-B
Sun 09:12:54 AM 33.7320 31.7120 121° Southeast 520 598 37,000  Level FlightAware ADS-B
Sun 09:13:24 AM 33.6950 31.7870 121° Southeast 520 598 37,000  Level FlightAware ADS-B
Sun 09:14:00 AM 33.6520 31.8740 121° Southeast 519 597 37,000  Level FlightAware ADS-B
Sun 09:14:34 AM 33.6070 31.9630 121° Southeast 520 598 37,000  Level FlightAware ADS-B
Sun 09:15:10 AM 33.5640 32.0490 121° Southeast 519 597 37,000  Level FlightAware ADS-B
Sun 09:15:49 AM 33.5140 32.1490 121° Southeast 519 597 37,000  Level FlightAware ADS-B
Sun 09:16:21 AM 33.4780 32.2200 121° Southeast 523 602 37,000  Level FlightAware ADS-B
Sun 09:16:56 AM 33.4320 32.3110 121° Southeast 523 602 37,000  Level FlightAware ADS-B
Sun 09:17:32 AM 33.3860 32.4010 121° Southeast 523 602 37,000  Level FlightAware ADS-B
Sun 09:18:10 AM 33.3410 32.4900 121° Southeast 524 603 37,000 -179 Level FlightAware ADS-B
Sun 09:18:39 AM 33.3060 32.5590 121° Southeast 525 604 36,800 -1,433 Descending FlightAware ADS-B
Sun 09:19:17 AM 33.2540 32.6610 121° Southeast 515 593 35,400 -2,219 Descending FlightAware ADS-B
Sun 09:19:52 AM 33.2100 32.7470 121° Southeast 506 582 34,100 -2,160 Descending FlightAware ADS-B
Sun 09:20:32 AM 33.1620 32.8410 121° Southeast 503 579 32,700 -2,055 Descending FlightAware ADS-B
Sun 09:21:05 AM 33.1440 32.8740 123° Southeast 491 565 31,600 -2,206 Descending FlightAware ADS-B
Sun 09:21:40 AM 33.0810 32.9970 121° Southeast 482 555 30,200 -2,282 Descending FlightAware ADS-B
Sun 09:22:16 AM 33.0400 33.0780 121° Southeast 472 543 28,900 -2,132 Descending FlightAware ADS-B
Sun 09:22:56 AM 32.9970 33.1660 120° Southeast 459 528 27,500 -2,023 Descending FlightAware ADS-B
Sun 09:23:42 AM 32.9460 33.2660 121° Southeast 442 509 26,000 -2,025 Descending FlightAware ADS-B
Sun 09:24:16 AM 32.9110 33.3360 121° Southeast 432 497 24,800 -2,000 Descending FlightAware ADS-B
Sun 09:24:54 AM 32.8720 33.4150 120° Southeast 420 483 23,600 -1,946 Descending FlightAware ADS-B
Sun 09:25:30 AM 32.8360 33.4850 121° Southeast 408 470 22,400 -1,853 Descending FlightAware ADS-B
Sun 09:26:02 AM 32.8060 33.5460 120° Southeast 395 455 21,500 -1,652 Descending FlightAware ADS-B
Sun 09:26:39 AM 32.7720 33.6110 122° Southeast 386 444 20,500 -1,703 Descending FlightAware ADS-B
Sun 09:27:16 AM 32.7380 33.6770 121° Southeast 378 435 19,400 -1,791 Descending FlightAware ADS-B
Sun 09:27:46 AM 32.7100 33.7330 121° Southeast 370 426 18,500 -1,791 Descending FlightAware ADS-B
Sun 09:28:23 AM 32.6790 33.7950 121° Southeast 364 419 17,400 -1,784 Descending FlightAware ADS-B
Sun 09:29:00 AM 32.6460 33.8600 121° Southeast 358 412 16,300 -1,726 Descending FlightAware ADS-B
Sun 09:29:36 AM 32.6150 33.9210 121° Southeast 349 402 15,300 -1,343 Descending FlightAware ADS-B
Sun 09:30:07 AM 32.5910 33.9680 121° Southeast 322 371 14,800 -1,147 Descending FlightAware ADS-B
Sun 09:30:44 AM 32.5630 34.0240 121° Southeast 302 348 14,000 -1,385 Descending FlightAware ADS-B
Sun 09:30:59 AM 32.5520 34.0430 124° Southeast 300 345 13,600 -1,500 Descending FlightAware ADS-B
Sun 09:31:08 AM 32.5430 34.0530 137° Southeast 298 343 13,400 -2,000 Descending FlightAware ADS-B
Sun 09:31:20 AM 32.5280 34.0620 153° Southeast 303 349 12,900 -2,400 Descending FlightAware ADS-B
Sun 09:31:28 AM 32.5160 34.0640 172° South 304 350 12,600 -1,650 Descending FlightAware ADS-B
Sun 09:32:00 AM 32.4710 34.0620 182° South 303 349 11,800 -1,455 Descending FlightAware ADS-B
Sun 09:32:34 AM 32.4240 34.0600 182° South 298 343 11,000 -1,341 Descending FlightAware ADS-B
Sun 09:33:25 AM 32.3560 34.0670 175° South 295 339 9,900 -1,424 Descending FlightAware ADS-B
Sun 09:33:33 AM 32.3460 34.0760 143° Southeast 296 341 9,600 -2,000 Descending FlightAware ADS-B
Sun 09:33:37 AM 32.3420 34.0810 133° Southeast 297 342 9,500 -1,579 Descending FlightAware ADS-B
Sun 09:33:52 AM 32.3320 34.1030 118° Southeast 296 341 9,100 -1,105 Descending FlightAware ADS-B
Sun 09:34:15 AM 32.3240 34.1340 107° East 291 335 8,800 -1,029 Descending FlightAware ADS-B
Sun 09:34:27 AM 32.3190 34.1550 106° East 287 330 8,500 -1,333 Descending FlightAware ADS-B
Sun 09:34:51 AM 32.3110 34.1920 104° East 283 326 8,000 -632 Descending FlightAware ADS-B
Sun 09:35:24 AM 32.3010 34.2360 105° East 281 323 7,900 -182 Descending FlightAware ADS-B
Sun 09:38:00 AM 32.1034 34.6717 125° Southeast  Level Estimated
Sun 09:38:03 AM 32.2400 34.4650 125° Southeast 6,100  Level FlightAware ADS-B
Sun 09:40:00 AM 32.0555 34.7695 115° Southeast  Level FlightAware Approximate
Sun 09:41:00 AM 32.0000 34.8667 125° Southeast  Level FlightAware Approximate
Sun 09:42:00 AM 32.0095 34.8769 125° Southeast  Level Estimated
Sun 09:43:00 AM 32.0095 34.8769 125° Southeast  Level Estimated
Sun 09:44:00 AM 32.0095 34.8769 125° Southeast  Level Estimated
Sun 09:45:00 AM 32.0095 34.8769 125° Southeast  Level Estimated
Sun 09:46:00 AM 32.0095 34.8769 125° Southeast  Level Estimated
Sun 09:47:00 AM 32.0095 34.8769 125° Southeast  Level Estimated
Sun 09:48:00 AM 32.0095 34.8769 125° Southeast  Level Estimated
Sun 09:49:00 AM 32.0095 34.8769 125° Southeast  Level Estimated

Login

Don't have an account? Register now (free) for customized features, flight alerts, and more!